sensor_id;sensor_type;location;lat;lon;timestamp;P1;durP1;ratioP1;P2;durP2;ratioP2
53642;SDS011;39546;45.534;12.048;2022-09-14T00:00:07;3.17;;;1.80;;
53642;SDS011;39546;45.534;12.048;2022-09-14T00:06:11;4.57;;;2.08;;
53642;SDS011;39546;45.534;12.048;2022-09-14T00:12:30;5.87;;;2.20;;
53642;SDS011;39546;45.534;12.048;2022-09-14T00:18:33;2.53;;;1.67;;
53642;SDS011;39546;45.534;12.048;2022-09-14T00:24:36;2.28;;;1.73;;
53642;SDS011;39546;45.534;12.048;2022-09-14T00:30:40;2.00;;;1.50;;
53642;SDS011;39546;45.534;12.048;2022-09-14T00:36:43;4.43;;;2.30;;
53642;SDS011;39546;45.534;12.048;2022-09-14T00:42:47;3.15;;;1.98;;
53642;SDS011;39546;45.534;12.048;2022-09-14T00:49:10;3.37;;;1.60;;
53642;SDS011;39546;45.534;12.048;2022-09-14T00:55:25;4.53;;;2.47;;
53642;SDS011;39546;45.534;12.048;2022-09-14T01:01:28;3.97;;;2.95;;
53642;SDS011;39546;45.534;12.048;2022-09-14T01:14:16;5.32;;;2.28;;
53642;SDS011;39546;45.534;12.048;2022-09-14T01:20:46;3.55;;;2.05;;
53642;SDS011;39546;45.534;12.048;2022-09-14T01:33:21;3.72;;;1.58;;
53642;SDS011;39546;45.534;12.048;2022-09-14T01:39:30;3.70;;;1.73;;
53642;SDS011;39546;45.534;12.048;2022-09-14T01:45:45;3.25;;;2.80;;
53642;SDS011;39546;45.534;12.048;2022-09-14T01:51:52;8.82;;;2.80;;
53642;SDS011;39546;45.534;12.048;2022-09-14T01:58:11;3.05;;;2.10;;
53642;SDS011;39546;45.534;12.048;2022-09-14T02:04:33;2.47;;;2.10;;
53642;SDS011;39546;45.534;12.048;2022-09-14T02:10:59;4.05;;;2.47;;
53642;SDS011;39546;45.534;12.048;2022-09-14T02:17:03;1.50;;;1.27;;
53642;SDS011;39546;45.534;12.048;2022-09-14T02:23:06;4.55;;;2.37;;
53642;SDS011;39546;45.534;12.048;2022-09-14T02:29:08;2.20;;;2.00;;
53642;SDS011;39546;45.534;12.048;2022-09-14T02:48:29;3.60;;;2.17;;
53642;SDS011;39546;45.534;12.048;2022-09-14T02:54:50;2.97;;;2.25;;
53642;SDS011;39546;45.534;12.048;2022-09-14T03:00:57;3.15;;;1.92;;
53642;SDS011;39546;45.534;12.048;2022-09-14T03:06:59;12.73;;;2.75;;
53642;SDS011;39546;45.534;12.048;2022-09-14T03:13:01;2.10;;;1.60;;
53642;SDS011;39546;45.534;12.048;2022-09-14T03:19:04;3.12;;;1.73;;
53642;SDS011;39546;45.534;12.048;2022-09-14T03:25:06;2.67;;;2.15;;
53642;SDS011;39546;45.534;12.048;2022-09-14T03:31:09;3.67;;;2.53;;
53642;SDS011;39546;45.534;12.048;2022-09-14T03:37:14;3.33;;;2.35;;
53642;SDS011;39546;45.534;12.048;2022-09-14T03:43:16;4.15;;;2.80;;
53642;SDS011;39546;45.534;12.048;2022-09-14T03:49:18;4.32;;;2.33;;
53642;SDS011;39546;45.534;12.048;2022-09-14T03:55:20;6.10;;;3.83;;
53642;SDS011;39546;45.534;12.048;2022-09-14T04:01:24;5.00;;;2.75;;
53642;SDS011;39546;45.534;12.048;2022-09-14T04:07:26;3.25;;;2.55;;
53642;SDS011;39546;45.534;12.048;2022-09-14T04:13:29;3.35;;;2.40;;
53642;SDS011;39546;45.534;12.048;2022-09-14T04:19:31;3.97;;;2.80;;
53642;SDS011;39546;45.534;12.048;2022-09-14T04:25:34;4.93;;;2.85;;
53642;SDS011;39546;45.534;12.048;2022-09-14T04:31:36;5.55;;;2.95;;
53642;SDS011;39546;45.534;12.048;2022-09-14T04:37:38;4.43;;;3.20;;
53642;SDS011;39546;45.534;12.048;2022-09-14T04:43:43;3.08;;;2.28;;
53642;SDS011;39546;45.534;12.048;2022-09-14T04:49:46;4.32;;;2.45;;
53642;SDS011;39546;45.534;12.048;2022-09-14T04:55:48;3.78;;;2.83;;
53642;SDS011;39546;45.534;12.048;2022-09-14T05:01:50;4.32;;;3.15;;
53642;SDS011;39546;45.534;12.048;2022-09-14T05:07:52;5.00;;;3.10;;
53642;SDS011;39546;45.534;12.048;2022-09-14T05:13:54;2.37;;;2.05;;
53642;SDS011;39546;45.534;12.048;2022-09-14T05:19:57;4.15;;;2.65;;
53642;SDS011;39546;45.534;12.048;2022-09-14T05:26:00;4.57;;;2.72;;
53642;SDS011;39546;45.534;12.048;2022-09-14T05:32:02;6.03;;;3.65;;
53642;SDS011;39546;45.534;12.048;2022-09-14T05:38:05;4.40;;;2.95;;
53642;SDS011;39546;45.534;12.048;2022-09-14T05:44:07;4.53;;;2.78;;
53642;SDS011;39546;45.534;12.048;2022-09-14T05:50:09;8.18;;;3.37;;
53642;SDS011;39546;45.534;12.048;2022-09-14T05:56:12;5.28;;;3.35;;
53642;SDS011;39546;45.534;12.048;2022-09-14T06:02:15;5.87;;;3.67;;
53642;SDS011;39546;45.534;12.048;2022-09-14T06:08:17;4.47;;;2.97;;
53642;SDS011;39546;45.534;12.048;2022-09-14T06:14:19;4.45;;;2.85;;
53642;SDS011;39546;45.534;12.048;2022-09-14T06:20:21;5.50;;;4.12;;
53642;SDS011;39546;45.534;12.048;2022-09-14T06:26:25;6.37;;;4.25;;
53642;SDS011;39546;45.534;12.048;2022-09-14T06:32:36;7.82;;;4.30;;
53642;SDS011;39546;45.534;12.048;2022-09-14T06:38:40;5.12;;;3.60;;
53642;SDS011;39546;45.534;12.048;2022-09-14T06:45:01;5.05;;;3.33;;
53642;SDS011;39546;45.534;12.048;2022-09-14T06:51:41;7.00;;;4.77;;
53642;SDS011;39546;45.534;12.048;2022-09-14T06:57:46;5.32;;;3.70;;
53642;SDS011;39546;45.534;12.048;2022-09-14T07:03:49;6.28;;;3.40;;
53642;SDS011;39546;45.534;12.048;2022-09-14T07:09:52;5.25;;;3.28;;
53642;SDS011;39546;45.534;12.048;2022-09-14T07:15:55;4.75;;;3.55;;
53642;SDS011;39546;45.534;12.048;2022-09-14T07:21:57;5.78;;;3.90;;
53642;SDS011;39546;45.534;12.048;2022-09-14T07:28:05;13.80;;;4.47;;
53642;SDS011;39546;45.534;12.048;2022-09-14T07:34:08;5.10;;;3.55;;
53642;SDS011;39546;45.534;12.048;2022-09-14T07:40:10;5.43;;;3.75;;
53642;SDS011;39546;45.534;12.048;2022-09-14T07:46:13;4.60;;;3.30;;
53642;SDS011;39546;45.534;12.048;2022-09-14T07:52:19;5.50;;;3.15;;
53642;SDS011;39546;45.534;12.048;2022-09-14T07:58:21;5.20;;;2.87;;
53642;SDS011;39546;45.534;12.048;2022-09-14T08:04:39;6.12;;;3.40;;
53642;SDS011;39546;45.534;12.048;2022-09-14T08:10:43;7.35;;;3.65;;
53642;SDS011;39546;45.534;12.048;2022-09-14T08:16:44;3.30;;;2.65;;
53642;SDS011;39546;45.534;12.048;2022-09-14T08:22:46;6.97;;;3.95;;
53642;SDS011;39546;45.534;12.048;2022-09-14T08:28:48;5.97;;;3.87;;
53642;SDS011;39546;45.534;12.048;2022-09-14T08:34:50;4.78;;;2.87;;
53642;SDS011;39546;45.534;12.048;2022-09-14T08:40:52;5.32;;;3.08;;
53642;SDS011;39546;45.534;12.048;2022-09-14T08:47:01;3.80;;;1.90;;
53642;SDS011;39546;45.534;12.048;2022-09-14T08:53:04;5.25;;;1.98;;
53642;SDS011;39546;45.534;12.048;2022-09-14T08:59:16;2.00;;;1.67;;
53642;SDS011;39546;45.534;12.048;2022-09-14T09:05:57;2.22;;;1.45;;
53642;SDS011;39546;45.534;12.048;2022-09-14T09:12:54;4.12;;;2.10;;
53642;SDS011;39546;45.534;12.048;2022-09-14T09:19:09;3.40;;;1.60;;
53642;SDS011;39546;45.534;12.048;2022-09-14T09:25:25;21.23;;;2.70;;
53642;SDS011;39546;45.534;12.048;2022-09-14T09:31:49;3.80;;;2.40;;
53642;SDS011;39546;45.534;12.048;2022-09-14T09:37:55;4.57;;;2.10;;
53642;SDS011;39546;45.534;12.048;2022-09-14T09:44:00;2.87;;;1.50;;
53642;SDS011;39546;45.534;12.048;2022-09-14T10:02:58;3.50;;;1.90;;
53642;SDS011;39546;45.534;12.048;2022-09-14T10:09:18;6.27;;;2.57;;
53642;SDS011;39546;45.534;12.048;2022-09-14T10:15:25;4.25;;;3.22;;
53642;SDS011;39546;45.534;12.048;2022-09-14T10:21:30;12.10;;;3.70;;
53642;SDS011;39546;45.534;12.048;2022-09-14T10:27:34;5.50;;;2.58;;
53642;SDS011;39546;45.534;12.048;2022-09-14T10:33:40;7.05;;;3.75;;
53642;SDS011;39546;45.534;12.048;2022-09-14T10:39:49;4.00;;;2.53;;
53642;SDS011;39546;45.534;12.048;2022-09-14T10:46:11;4.30;;;2.90;;
53642;SDS011;39546;45.534;12.048;2022-09-14T11:04:58;4.68;;;2.37;;
53642;SDS011;39546;45.534;12.048;2022-09-14T11:30:38;3.80;;;2.35;;
53642;SDS011;39546;45.534;12.048;2022-09-14T11:37:03;8.00;;;2.42;;
53642;SDS011;39546;45.534;12.048;2022-09-14T11:56:02;4.72;;;2.60;;
53642;SDS011;39546;45.534;12.048;2022-09-14T12:26:39;7.32;;;2.45;;
53642;SDS011;39546;45.534;12.048;2022-09-14T12:32:42;8.88;;;2.70;;
53642;SDS011;39546;45.534;12.048;2022-09-14T12:45:46;4.72;;;2.50;;
53642;SDS011;39546;45.534;12.048;2022-09-14T12:51:52;4.30;;;1.90;;
53642;SDS011;39546;45.534;12.048;2022-09-14T12:58:17;3.17;;;1.73;;
53642;SDS011;39546;45.534;12.048;2022-09-14T13:04:44;4.67;;;2.67;;
53642;SDS011;39546;45.534;12.048;2022-09-14T13:10:49;6.25;;;1.92;;
53642;SDS011;39546;45.534;12.048;2022-09-14T13:16:52;2.20;;;1.60;;
53642;SDS011;39546;45.534;12.048;2022-09-14T13:22:56;2.92;;;1.95;;
53642;SDS011;39546;45.534;12.048;2022-09-14T13:28:59;3.35;;;2.20;;
53642;SDS011;39546;45.534;12.048;2022-09-14T13:35:03;3.37;;;1.80;;
53642;SDS011;39546;45.534;12.048;2022-09-14T13:41:07;2.17;;;1.90;;
53642;SDS011;39546;45.534;12.048;2022-09-14T13:47:36;3.12;;;1.67;;
53642;SDS011;39546;45.534;12.048;2022-09-14T14:00:21;3.05;;;1.45;;
53642;SDS011;39546;45.534;12.048;2022-09-14T14:06:25;3.60;;;1.73;;
53642;SDS011;39546;45.534;12.048;2022-09-14T14:12:35;3.03;;;2.05;;
53642;SDS011;39546;45.534;12.048;2022-09-14T14:18:40;2.60;;;1.65;;
53642;SDS011;39546;45.534;12.048;2022-09-14T14:24:45;3.15;;;1.77;;
53642;SDS011;39546;45.534;12.048;2022-09-14T14:31:18;2.37;;;1.58;;
53642;SDS011;39546;45.534;12.048;2022-09-14T14:37:23;4.15;;;2.25;;
53642;SDS011;39546;45.534;12.048;2022-09-14T14:43:25;3.03;;;1.45;;
53642;SDS011;39546;45.534;12.048;2022-09-14T14:49:29;3.65;;;1.87;;
53642;SDS011;39546;45.534;12.048;2022-09-14T14:55:31;5.85;;;2.08;;
53642;SDS011;39546;45.534;12.048;2022-09-14T15:01:34;3.42;;;1.55;;
53642;SDS011;39546;45.534;12.048;2022-09-14T15:07:36;1.65;;;1.33;;
53642;SDS011;39546;45.534;12.048;2022-09-14T15:13:39;4.70;;;1.60;;
53642;SDS011;39546;45.534;12.048;2022-09-14T15:19:41;4.12;;;2.92;;
53642;SDS011;39546;45.534;12.048;2022-09-14T15:25:43;2.62;;;1.77;;
53642;SDS011;39546;45.534;12.048;2022-09-14T15:31:46;5.07;;;2.33;;
53642;SDS011;39546;45.534;12.048;2022-09-14T15:37:48;2.35;;;1.60;;
53642;SDS011;39546;45.534;12.048;2022-09-14T15:43:50;3.15;;;2.15;;
53642;SDS011;39546;45.534;12.048;2022-09-14T15:49:52;2.58;;;1.62;;
53642;SDS011;39546;45.534;12.048;2022-09-14T15:55:54;4.00;;;1.42;;
53642;SDS011;39546;45.534;12.048;2022-09-14T16:01:56;4.15;;;2.80;;
53642;SDS011;39546;45.534;12.048;2022-09-14T16:07:58;3.70;;;2.37;;
53642;SDS011;39546;45.534;12.048;2022-09-14T16:14:01;3.03;;;1.77;;
53642;SDS011;39546;45.534;12.048;2022-09-14T16:20:05;4.00;;;1.73;;
53642;SDS011;39546;45.534;12.048;2022-09-14T16:26:11;5.22;;;1.83;;
53642;SDS011;39546;45.534;12.048;2022-09-14T16:32:16;2.22;;;1.48;;
53642;SDS011;39546;45.534;12.048;2022-09-14T16:38:22;3.45;;;1.45;;
53642;SDS011;39546;45.534;12.048;2022-09-14T16:44:30;3.25;;;1.83;;
53642;SDS011;39546;45.534;12.048;2022-09-14T16:50:36;4.72;;;2.45;;
53642;SDS011;39546;45.534;12.048;2022-09-14T16:56:39;2.87;;;1.92;;
53642;SDS011;39546;45.534;12.048;2022-09-14T17:02:41;5.43;;;1.83;;
53642;SDS011;39546;45.534;12.048;2022-09-14T17:08:58;2.92;;;2.05;;
53642;SDS011;39546;45.534;12.048;2022-09-14T17:15:02;2.75;;;1.65;;
53642;SDS011;39546;45.534;12.048;2022-09-14T17:27:32;4.82;;;2.10;;
53642;SDS011;39546;45.534;12.048;2022-09-14T17:33:34;3.42;;;2.15;;
53642;SDS011;39546;45.534;12.048;2022-09-14T17:39:36;5.82;;;2.12;;
53642;SDS011;39546;45.534;12.048;2022-09-14T17:52:15;3.62;;;2.60;;
53642;SDS011;39546;45.534;12.048;2022-09-14T17:58:17;4.87;;;2.08;;
53642;SDS011;39546;45.534;12.048;2022-09-14T18:04:38;5.05;;;2.83;;
53642;SDS011;39546;45.534;12.048;2022-09-14T18:10:40;6.32;;;2.12;;
53642;SDS011;39546;45.534;12.048;2022-09-14T18:16:43;3.15;;;1.92;;
53642;SDS011;39546;45.534;12.048;2022-09-14T18:22:45;4.93;;;2.72;;
53642;SDS011;39546;45.534;12.048;2022-09-14T18:28:47;3.62;;;2.00;;
53642;SDS011;39546;45.534;12.048;2022-09-14T18:34:51;6.62;;;2.28;;
53642;SDS011;39546;45.534;12.048;2022-09-14T18:40:54;4.53;;;2.22;;
53642;SDS011;39546;45.534;12.048;2022-09-14T18:47:06;4.68;;;2.80;;
53642;SDS011;39546;45.534;12.048;2022-09-14T18:53:08;7.15;;;2.90;;
53642;SDS011;39546;45.534;12.048;2022-09-14T18:59:12;3.05;;;2.20;;
53642;SDS011;39546;45.534;12.048;2022-09-14T19:05:15;5.97;;;2.30;;
53642;SDS011;39546;45.534;12.048;2022-09-14T19:11:19;18.92;;;3.17;;
53642;SDS011;39546;45.534;12.048;2022-09-14T19:17:22;5.93;;;3.50;;
53642;SDS011;39546;45.534;12.048;2022-09-14T19:23:25;4.18;;;2.72;;
53642;SDS011;39546;45.534;12.048;2022-09-14T19:29:27;6.62;;;2.28;;
53642;SDS011;39546;45.534;12.048;2022-09-14T19:35:30;5.28;;;3.17;;
53642;SDS011;39546;45.534;12.048;2022-09-14T19:41:57;3.45;;;2.50;;
53642;SDS011;39546;45.534;12.048;2022-09-14T19:54:55;6.22;;;3.10;;
53642;SDS011;39546;45.534;12.048;2022-09-14T20:00:58;9.23;;;2.62;;
53642;SDS011;39546;45.534;12.048;2022-09-14T20:07:03;6.50;;;3.45;;
53642;SDS011;39546;45.534;12.048;2022-09-14T20:13:05;4.47;;;2.97;;
53642;SDS011;39546;45.534;12.048;2022-09-14T20:19:08;5.80;;;3.05;;
53642;SDS011;39546;45.534;12.048;2022-09-14T20:25:15;3.65;;;2.35;;
53642;SDS011;39546;45.534;12.048;2022-09-14T20:31:17;4.35;;;2.65;;
53642;SDS011;39546;45.534;12.048;2022-09-14T20:37:19;3.53;;;2.78;;
53642;SDS011;39546;45.534;12.048;2022-09-14T20:43:21;3.72;;;2.47;;
53642;SDS011;39546;45.534;12.048;2022-09-14T20:49:24;6.78;;;3.00;;
53642;SDS011;39546;45.534;12.048;2022-09-14T20:55:26;3.60;;;2.60;;
53642;SDS011;39546;45.534;12.048;2022-09-14T21:01:30;5.90;;;3.05;;
53642;SDS011;39546;45.534;12.048;2022-09-14T21:07:33;4.75;;;3.10;;
53642;SDS011;39546;45.534;12.048;2022-09-14T21:13:36;4.37;;;2.78;;
53642;SDS011;39546;45.534;12.048;2022-09-14T21:19:38;10.90;;;3.35;;
53642;SDS011;39546;45.534;12.048;2022-09-14T21:25:40;5.78;;;3.97;;
53642;SDS011;39546;45.534;12.048;2022-09-14T21:31:43;11.60;;;3.83;;
53642;SDS011;39546;45.534;12.048;2022-09-14T21:37:48;6.97;;;3.78;;
53642;SDS011;39546;45.534;12.048;2022-09-14T21:43:51;4.47;;;3.20;;
53642;SDS011;39546;45.534;12.048;2022-09-14T21:49:55;6.53;;;2.92;;
53642;SDS011;39546;45.534;12.048;2022-09-14T21:55:57;5.45;;;3.08;;
53642;SDS011;39546;45.534;12.048;2022-09-14T22:01:59;4.37;;;3.42;;
53642;SDS011;39546;45.534;12.048;2022-09-14T22:08:09;3.28;;;2.75;;
53642;SDS011;39546;45.534;12.048;2022-09-14T22:14:13;5.90;;;3.97;;
53642;SDS011;39546;45.534;12.048;2022-09-14T22:20:18;7.37;;;4.00;;
53642;SDS011;39546;45.534;12.048;2022-09-14T22:26:20;5.37;;;3.53;;
53642;SDS011;39546;45.534;12.048;2022-09-14T22:32:24;4.32;;;3.60;;
53642;SDS011;39546;45.534;12.048;2022-09-14T22:38:27;5.43;;;3.30;;
53642;SDS011;39546;45.534;12.048;2022-09-14T22:44:30;3.80;;;2.92;;
53642;SDS011;39546;45.534;12.048;2022-09-14T22:50:32;4.80;;;2.58;;
53642;SDS011;39546;45.534;12.048;2022-09-14T22:56:36;3.25;;;2.40;;
53642;SDS011;39546;45.534;12.048;2022-09-14T23:02:39;4.40;;;2.62;;
53642;SDS011;39546;45.534;12.048;2022-09-14T23:08:41;4.20;;;2.17;;
53642;SDS011;39546;45.534;12.048;2022-09-14T23:14:43;5.15;;;3.05;;
53642;SDS011;39546;45.534;12.048;2022-09-14T23:20:45;3.83;;;2.72;;
53642;SDS011;39546;45.534;12.048;2022-09-14T23:26:47;3.28;;;2.03;;
53642;SDS011;39546;45.534;12.048;2022-09-14T23:32:50;4.22;;;2.60;;
53642;SDS011;39546;45.534;12.048;2022-09-14T23:38:52;6.50;;;2.75;;
53642;SDS011;39546;45.534;12.048;2022-09-14T23:44:54;6.20;;;3.40;;
53642;SDS011;39546;45.534;12.048;2022-09-14T23:51:00;4.10;;;2.78;;
53642;SDS011;39546;45.534;12.048;2022-09-14T23:57:04;4.90;;;2.77;;
